createdAt,value
2018-06-21T00:01:33.079Z,16.87
2018-06-21T00:04:01.254Z,15.60
2018-06-21T00:06:29.437Z,16.10
2018-06-21T00:08:57.594Z,15.17
2018-06-21T00:11:25.784Z,16.23
2018-06-21T00:13:53.947Z,16.63
2018-06-21T00:16:22.112Z,17.20
2018-06-21T00:18:50.279Z,16.60
2018-06-21T00:21:18.451Z,16.07
2018-06-21T00:23:46.635Z,15.67
2018-06-21T00:26:14.801Z,16.73
2018-06-21T00:28:42.962Z,17.23
2018-06-21T00:31:11.135Z,15.83
2018-06-21T00:33:39.309Z,15.67
2018-06-21T00:36:07.490Z,16.50
2018-06-21T00:38:35.638Z,15.50
2018-06-21T00:41:03.802Z,16.33
2018-06-21T00:43:32.010Z,16.27
2018-06-21T00:46:00.174Z,16.57
2018-06-21T00:48:28.338Z,16.23
2018-06-21T00:50:56.724Z,15.80
2018-06-21T00:53:25.031Z,16.20
2018-06-21T00:56:27.102Z,16.10
2018-06-21T00:58:55.263Z,15.93
2018-06-21T01:01:23.446Z,16.87
2018-06-21T01:03:51.614Z,16.17
2018-06-21T01:06:19.783Z,16.70
2018-06-21T01:08:47.959Z,17.13
2018-06-21T01:11:16.135Z,16.90
2018-06-21T01:13:44.302Z,16.43
2018-06-21T01:16:12.538Z,16.60
2018-06-21T01:18:40.695Z,16.47
2018-06-21T01:21:08.881Z,16.40
2018-06-21T01:23:37.042Z,17.77
2018-06-21T01:26:05.344Z,17.47
2018-06-21T01:28:33.516Z,17.20
2018-06-21T01:31:01.687Z,17.10
2018-06-21T01:33:29.851Z,16.50
2018-06-21T01:35:58.039Z,17.10
2018-06-21T01:38:26.206Z,18.80
2018-06-21T01:40:54.382Z,19.37
2018-06-21T01:43:22.567Z,20.40
2018-06-21T01:45:50.747Z,19.10
2018-06-21T01:48:18.935Z,18.87
2018-06-21T01:50:47.103Z,18.77
2018-06-21T01:53:15.258Z,18.40
2018-06-21T01:55:43.431Z,18.43
2018-06-21T01:58:11.602Z,19.93
2018-06-21T02:00:39.807Z,18.60
2018-06-21T02:03:07.974Z,17.17
2018-06-21T02:05:36.320Z,16.83
2018-06-21T02:08:04.510Z,16.97
2018-06-21T02:10:32.662Z,17.00
2018-06-21T02:13:00.827Z,17.63
2018-06-21T02:15:28.996Z,18.57
2018-06-21T02:17:57.150Z,18.13
2018-06-21T02:20:25.312Z,17.83
2018-06-21T02:22:53.463Z,17.47
2018-06-21T02:25:21.656Z,18.20
2018-06-21T02:27:49.802Z,17.70
2018-06-21T02:30:17.975Z,17.73
2018-06-21T02:32:46.155Z,18.10
2018-06-21T02:35:14.319Z,16.60
2018-06-21T02:37:42.497Z,17.53
2018-06-21T02:40:10.667Z,17.50
2018-06-21T02:42:38.837Z,16.93
2018-06-21T02:45:07.007Z,18.37
2018-06-21T02:47:35.182Z,17.70
2018-06-21T02:50:03.366Z,17.40
2018-06-21T02:52:32.760Z,18.77
2018-06-21T02:55:00.927Z,19.90
2018-06-21T02:57:29.296Z,19.20
2018-06-21T02:59:57.520Z,18.93
2018-06-21T03:02:25.737Z,20.37
2018-06-21T03:04:53.911Z,19.40
2018-06-21T03:07:22.096Z,20.57
2018-06-21T03:09:50.260Z,18.80
2018-06-21T03:12:23.179Z,18.93
2018-06-21T03:14:52.327Z,19.17
2018-06-21T03:17:20.532Z,19.50
2018-06-21T03:19:48.727Z,19.17
2018-06-21T03:22:16.911Z,18.97
2018-06-21T03:24:45.089Z,19.37
2018-06-21T03:27:13.258Z,19.50
2018-06-21T03:29:41.467Z,19.87
2018-06-21T03:32:09.960Z,19.93
2018-06-21T03:34:38.337Z,19.77
2018-06-21T03:37:06.515Z,19.20
2018-06-21T03:39:34.707Z,19.00
2018-06-21T03:42:02.874Z,19.40
2018-06-21T03:44:31.044Z,19.03
2018-06-21T03:46:59.223Z,19.77
2018-06-21T03:49:27.382Z,18.67
2018-06-21T03:51:55.547Z,17.90
2018-06-21T03:54:23.702Z,18.00
2018-06-21T03:56:51.856Z,16.90
2018-06-21T03:59:20.019Z,17.93
2018-06-21T04:01:48.214Z,16.30
2018-06-21T04:04:16.403Z,16.63
2018-06-21T04:06:44.574Z,16.00
2018-06-21T04:09:12.978Z,14.90
2018-06-21T04:11:41.178Z,16.30
2018-06-21T04:14:09.347Z,16.00
2018-06-21T04:16:37.995Z,15.97
2018-06-21T04:19:06.239Z,14.20
2018-06-21T04:21:34.443Z,14.63
2018-06-21T04:24:02.749Z,15.47
2018-06-21T04:26:30.919Z,14.80
2018-06-21T04:28:59.098Z,15.50
2018-06-21T04:31:27.271Z,15.20
2018-06-21T04:33:55.443Z,15.70
2018-06-21T04:36:24.146Z,16.67
2018-06-21T04:38:52.306Z,15.00
2018-06-21T04:41:20.479Z,15.50
2018-06-21T04:43:48.659Z,14.20
2018-06-21T04:46:16.820Z,15.07
2018-06-21T04:48:45.427Z,16.60
2018-06-21T04:51:13.691Z,15.00
2018-06-21T04:53:41.891Z,15.90
2018-06-21T04:56:10.062Z,14.90
2018-06-21T04:58:38.223Z,14.47
2018-06-21T05:01:06.903Z,15.80
2018-06-21T05:03:35.056Z,15.23
2018-06-21T05:06:03.228Z,15.83
2018-06-21T05:08:31.391Z,16.20
2018-06-21T05:10:59.543Z,18.20
2018-06-21T05:13:27.715Z,18.43
2018-06-21T05:15:55.936Z,17.83
2018-06-21T05:18:24.108Z,18.67
2018-06-21T05:20:53.320Z,21.47
2018-06-21T05:23:21.475Z,20.57
2018-06-21T05:25:49.638Z,19.73
2018-06-21T05:28:17.850Z,21.07
2018-06-21T05:30:46.003Z,19.87
2018-06-21T05:33:14.303Z,21.87
2018-06-21T05:35:42.476Z,21.67
2018-06-21T05:38:10.667Z,21.37
2018-06-21T05:40:38.854Z,22.80
2018-06-21T05:43:07.035Z,24.33
2018-06-21T05:45:35.480Z,25.70
2018-06-21T05:48:04.351Z,28.33
2018-06-21T05:50:33.607Z,29.70
2018-06-21T05:53:02.034Z,27.40
2018-06-21T05:55:31.169Z,26.97
2018-06-21T05:57:59.606Z,27.67
2018-06-21T06:00:27.873Z,28.07
2018-06-21T06:02:56.167Z,27.90
2018-06-21T06:05:24.335Z,27.90
2018-06-21T06:07:52.547Z,30.43
2018-06-21T06:10:21.403Z,28.40
2018-06-21T06:12:49.611Z,28.40
2018-06-21T06:15:17.794Z,27.40
2018-06-21T06:17:46.020Z,28.80
2018-06-21T06:20:14.196Z,27.93
2018-06-21T06:22:42.399Z,28.13
2018-06-21T06:25:10.575Z,28.63
2018-06-21T06:27:38.762Z,29.67
2018-06-21T06:30:07.451Z,28.80
2018-06-21T06:32:35.659Z,29.53
2018-06-21T06:35:03.843Z,31.90
2018-06-21T06:37:32.042Z,33.93
2018-06-21T06:40:00.252Z,35.97
2018-06-21T06:42:28.435Z,35.90
2018-06-21T06:44:56.630Z,36.73
2018-06-21T06:47:25.056Z,38.03
2018-06-21T06:49:53.255Z,37.47
2018-06-21T06:52:21.459Z,35.60
2018-06-21T06:54:49.701Z,36.27
2018-06-21T06:57:17.878Z,37.57
2018-06-21T06:59:46.093Z,36.33
2018-06-21T07:02:14.292Z,37.00
2018-06-21T07:04:42.484Z,33.77
2018-06-21T07:07:10.695Z,38.17
2018-06-21T07:09:38.852Z,34.80
2018-06-21T07:12:07.058Z,35.60
2018-06-21T07:14:35.247Z,34.10
2018-06-21T07:17:03.446Z,32.47
2018-06-21T07:19:31.623Z,31.93
2018-06-21T07:21:59.815Z,31.93
2018-06-21T07:24:27.991Z,31.60
2018-06-21T07:26:56.175Z,29.70
2018-06-21T07:29:24.346Z,31.53
2018-06-21T07:31:52.534Z,30.37
2018-06-21T07:34:20.711Z,29.60
2018-06-21T07:36:48.879Z,28.87
2018-06-21T07:39:17.061Z,29.57
2018-06-21T07:41:45.239Z,27.17
2018-06-21T07:44:13.411Z,28.63
2018-06-21T07:46:41.579Z,26.70
2018-06-21T07:49:09.754Z,27.43
2018-06-21T07:51:37.919Z,28.60
2018-06-21T07:54:06.099Z,26.70
2018-06-21T07:56:34.285Z,28.93
2018-06-21T07:59:02.483Z,27.13
2018-06-21T08:01:30.660Z,27.83
2018-06-21T08:03:58.819Z,26.33
2018-06-21T08:06:27.011Z,27.37
2018-06-21T08:08:55.154Z,25.63
2018-06-21T08:11:23.316Z,26.60
2018-06-21T08:13:51.470Z,27.07
2018-06-21T08:16:19.643Z,24.30
2018-06-21T08:18:47.801Z,26.07
2018-06-21T08:21:15.950Z,25.37
2018-06-21T08:23:44.134Z,25.90
2018-06-21T08:26:12.303Z,23.87
2018-06-21T08:28:40.508Z,19.67
2018-06-21T08:31:08.770Z,16.90
2018-06-21T08:33:36.951Z,16.70
2018-06-21T08:36:05.119Z,15.77
2018-06-21T08:38:33.303Z,13.60
2018-06-21T08:41:01.474Z,13.63
2018-06-21T08:43:29.646Z,13.30
2018-06-21T08:45:57.832Z,13.87
2018-06-21T08:48:25.986Z,11.70
2018-06-21T08:50:54.175Z,12.53
2018-06-21T08:53:22.505Z,12.87
2018-06-21T08:55:50.658Z,12.37
2018-06-21T08:58:18.890Z,12.80
2018-06-21T09:00:47.002Z,11.87
2018-06-21T09:03:15.202Z,11.87
2018-06-21T09:05:43.363Z,11.90
2018-06-21T09:08:11.515Z,12.87
2018-06-21T09:10:39.699Z,11.23
2018-06-21T09:13:07.874Z,11.90
2018-06-21T09:15:36.084Z,11.07
2018-06-21T09:18:04.251Z,11.50
2018-06-21T09:20:32.435Z,12.00
2018-06-21T09:23:00.602Z,10.83
2018-06-21T09:25:28.759Z,10.50
2018-06-21T09:27:56.930Z,10.90
2018-06-21T09:30:25.095Z,10.37
2018-06-21T09:32:53.265Z,10.17
2018-06-21T09:35:21.424Z,10.90
2018-06-21T09:37:54.919Z,10.73
2018-06-21T09:40:28.428Z,11.00
2018-06-21T09:43:01.799Z,10.50
2018-06-21T09:45:35.236Z,10.60
2018-06-21T09:48:08.683Z,9.40
2018-06-21T09:50:36.838Z,10.03
2018-06-21T09:53:05.021Z,9.40
2018-06-21T09:55:33.195Z,10.10
2018-06-21T09:58:01.387Z,9.73
2018-06-21T10:00:34.774Z,9.83
2018-06-21T10:03:02.938Z,11.37
2018-06-21T10:05:31.115Z,10.27
2018-06-21T10:07:59.303Z,10.63
2018-06-21T10:10:27.466Z,11.30
2018-06-21T10:12:55.630Z,10.70
2018-06-21T10:15:23.804Z,10.60
2018-06-21T10:17:51.986Z,9.80
2018-06-21T10:20:20.158Z,10.90
2018-06-21T10:22:48.314Z,11.00
2018-06-21T10:25:16.470Z,10.57
2018-06-21T10:27:44.648Z,12.50
2018-06-21T10:30:12.814Z,10.70
2018-06-21T10:32:40.974Z,9.70
2018-06-21T10:35:09.165Z,10.17
2018-06-21T10:37:37.319Z,9.50
2018-06-21T10:40:05.503Z,9.83
2018-06-21T10:42:33.678Z,9.20
2018-06-21T10:45:01.828Z,9.27
2018-06-21T10:47:29.994Z,8.40
2018-06-21T10:49:58.154Z,8.23
2018-06-21T10:52:26.323Z,8.93
2018-06-21T10:54:54.495Z,8.60
2018-06-21T10:57:22.659Z,8.80
2018-06-21T10:59:50.819Z,9.87
2018-06-21T11:02:19.040Z,9.70
2018-06-21T11:04:47.206Z,9.60
2018-06-21T11:07:15.491Z,9.20
2018-06-21T11:09:43.666Z,9.17
2018-06-21T11:12:11.833Z,8.90
2018-06-21T11:14:40.007Z,9.10
2018-06-21T11:17:08.175Z,9.50
2018-06-21T11:19:36.352Z,9.73
2018-06-21T11:22:04.507Z,8.00
2018-06-21T11:24:32.675Z,9.07
2018-06-21T11:27:00.886Z,9.67
2018-06-21T11:29:29.043Z,9.43
2018-06-21T11:31:57.199Z,9.90
2018-06-21T11:34:25.375Z,9.63
2018-06-21T11:36:53.530Z,9.90
2018-06-21T11:39:21.719Z,9.60
2018-06-21T11:41:49.894Z,10.57
2018-06-21T11:44:18.055Z,9.10
2018-06-21T11:46:46.267Z,9.00
2018-06-21T11:49:14.411Z,8.83
2018-06-21T11:51:42.582Z,8.10
2018-06-21T11:54:10.733Z,8.90
2018-06-21T11:56:38.901Z,8.70
2018-06-21T11:59:07.068Z,9.00
2018-06-21T12:01:35.299Z,8.67
2018-06-21T12:04:03.463Z,8.83
2018-06-21T12:06:31.742Z,9.63
2018-06-21T12:08:59.901Z,8.90
2018-06-21T12:11:28.070Z,8.33
2018-06-21T12:13:56.239Z,8.87
2018-06-21T12:16:24.403Z,9.03
2018-06-21T12:18:52.567Z,9.60
2018-06-21T12:21:20.735Z,9.33
2018-06-21T12:23:48.903Z,9.77
2018-06-21T12:26:17.106Z,10.13
2018-06-21T12:28:45.271Z,9.20
2018-06-21T12:31:13.423Z,9.10
2018-06-21T12:33:41.626Z,8.60
2018-06-21T12:36:09.803Z,8.53
2018-06-21T12:38:37.966Z,9.33
2018-06-21T12:41:06.147Z,7.97
2018-06-21T12:43:34.314Z,8.57
2018-06-21T12:46:02.463Z,9.17
2018-06-21T12:48:30.642Z,8.37
2018-06-21T12:50:58.786Z,9.10
2018-06-21T12:53:26.959Z,9.43
2018-06-21T12:55:55.122Z,9.77
2018-06-21T12:58:23.319Z,8.60
2018-06-21T13:00:51.487Z,9.90
2018-06-21T13:03:19.655Z,8.93
2018-06-21T13:05:47.822Z,9.33
2018-06-21T13:09:24.439Z,8.20
2018-06-21T13:12:18.407Z,9.20
2018-06-21T13:14:46.602Z,8.80
2018-06-21T13:17:14.782Z,8.30
2018-06-21T13:19:42.954Z,9.33
2018-06-21T13:22:11.129Z,9.10
2018-06-21T13:24:39.311Z,9.10
2018-06-21T13:27:07.512Z,9.20
2018-06-21T13:29:35.933Z,9.30
2018-06-21T13:32:04.115Z,9.30
2018-06-21T13:34:32.288Z,9.30
2018-06-21T13:37:00.502Z,9.43
2018-06-21T13:39:28.635Z,8.17
2018-06-21T13:41:56.818Z,8.93
2018-06-21T13:44:24.982Z,8.70
2018-06-21T13:46:53.150Z,9.40
2018-06-21T13:49:21.691Z,9.90
2018-06-21T13:51:49.882Z,8.73
2018-06-21T13:54:18.050Z,8.67
2018-06-21T13:56:47.355Z,9.07
2018-06-21T13:59:16.195Z,9.50
2018-06-21T14:01:44.327Z,9.20
2018-06-21T14:04:12.664Z,9.60
2018-06-21T14:06:40.943Z,9.20
2018-06-21T14:09:10.959Z,9.03
2018-06-21T14:11:39.154Z,10.30
2018-06-21T14:14:07.370Z,10.00
2018-06-21T14:16:35.877Z,9.70
2018-06-21T14:19:04.084Z,9.63
2018-06-21T14:21:32.325Z,10.13
2018-06-21T14:24:00.495Z,10.00
2018-06-21T14:26:28.661Z,9.30
2018-06-21T14:28:56.970Z,9.20
2018-06-21T14:31:25.514Z,9.60
2018-06-21T14:33:54.100Z,9.00
2018-06-21T14:36:22.299Z,8.13
2018-06-21T14:38:50.454Z,8.10
2018-06-21T14:41:18.610Z,8.30
2018-06-21T14:43:46.766Z,8.90
2018-06-21T14:46:14.938Z,8.97
2018-06-21T14:48:43.103Z,9.10
2018-06-21T14:51:11.283Z,9.13
2018-06-21T14:53:39.477Z,8.63
2018-06-21T14:56:07.603Z,9.10
2018-06-21T14:58:35.770Z,8.90
2018-06-21T15:01:03.959Z,8.90
2018-06-21T15:03:32.138Z,9.10
2018-06-21T15:06:00.419Z,9.23
2018-06-21T15:08:28.587Z,8.60
2018-06-21T15:10:56.921Z,9.80
2018-06-21T15:13:25.096Z,9.20
2018-06-21T15:15:53.268Z,8.67
2018-06-21T15:18:21.428Z,9.30
2018-06-21T15:20:49.590Z,9.40
2018-06-21T15:23:17.745Z,9.37
2018-06-21T15:25:45.919Z,8.60
2018-06-21T15:28:14.098Z,9.10
2018-06-21T15:30:42.283Z,8.27
2018-06-21T15:33:10.439Z,7.77
2018-06-21T15:35:38.594Z,8.57
2018-06-21T15:38:06.777Z,7.97
2018-06-21T15:40:34.962Z,7.60
2018-06-21T15:43:03.142Z,8.20
2018-06-21T15:45:31.419Z,8.10
2018-06-21T15:47:59.540Z,8.70
2018-06-21T15:50:27.694Z,7.47
2018-06-21T15:52:55.900Z,7.40
2018-06-21T15:55:24.063Z,7.20
2018-06-21T15:57:52.223Z,7.77
2018-06-21T16:00:20.379Z,8.03
2018-06-21T16:02:48.574Z,7.57
2018-06-21T16:05:16.732Z,11.10
2018-06-21T16:07:44.895Z,8.23
2018-06-21T16:10:13.050Z,8.90
2018-06-21T16:12:41.224Z,7.70
2018-06-21T16:15:09.398Z,8.60
2018-06-21T16:17:37.564Z,8.60
2018-06-21T16:20:05.726Z,9.10
2018-06-21T16:22:33.891Z,8.13
2018-06-21T16:25:02.043Z,7.70
2018-06-21T16:27:30.200Z,8.40
2018-06-21T16:29:58.380Z,8.00
2018-06-21T16:32:26.552Z,7.90
2018-06-21T16:34:54.787Z,8.30
2018-06-21T16:37:23.020Z,8.30
2018-06-21T16:39:51.489Z,7.73
2018-06-21T16:42:19.691Z,7.90
2018-06-21T16:44:47.948Z,7.40
2018-06-21T16:47:16.179Z,8.20
2018-06-21T16:49:44.446Z,7.60
2018-06-21T16:52:12.881Z,8.93
2018-06-21T16:54:41.679Z,7.90
2018-06-21T16:57:09.879Z,7.63
2018-06-21T16:59:38.047Z,7.37
2018-06-21T17:02:06.242Z,7.90
2018-06-21T17:04:34.462Z,7.47
2018-06-21T17:07:02.691Z,7.27
2018-06-21T17:09:30.882Z,8.00
2018-06-21T17:11:59.055Z,7.70
2018-06-21T17:14:27.238Z,7.40
2018-06-21T17:16:55.531Z,7.37
2018-06-21T17:19:23.682Z,7.63
2018-06-21T17:21:51.902Z,8.50
2018-06-21T17:24:20.131Z,6.83
2018-06-21T17:26:48.323Z,7.53
2018-06-21T17:29:16.549Z,7.13
2018-06-21T17:31:44.819Z,7.57
2018-06-21T17:34:12.966Z,7.80
2018-06-21T17:36:41.553Z,7.90
2018-06-21T17:39:10.651Z,7.70
2018-06-21T17:41:38.812Z,7.50
2018-06-21T17:44:06.982Z,7.67
2018-06-21T17:46:35.315Z,7.97
2018-06-21T17:49:03.532Z,7.60
2018-06-21T17:51:31.773Z,8.43
2018-06-21T17:53:59.925Z,8.43
2018-06-21T17:56:28.127Z,8.77
2018-06-21T17:58:56.299Z,7.47
2018-06-21T18:01:24.478Z,7.77
2018-06-21T18:03:52.691Z,7.73
2018-06-21T18:06:20.936Z,8.10
2018-06-21T18:08:49.502Z,8.53
2018-06-21T18:11:17.770Z,8.20
2018-06-21T18:13:45.987Z,7.80
2018-06-21T18:16:14.385Z,8.70
2018-06-21T18:18:42.715Z,8.47
2018-06-21T18:21:10.920Z,8.00
2018-06-21T18:23:39.227Z,7.80
2018-06-21T18:26:07.868Z,8.03
2018-06-21T18:28:36.114Z,8.40
2018-06-21T18:31:04.330Z,7.77
2018-06-21T18:33:32.695Z,8.40
2018-06-21T18:36:00.945Z,8.90
2018-06-21T18:38:29.191Z,7.90
2018-06-21T18:40:57.371Z,8.53
2018-06-21T18:43:25.560Z,7.80
2018-06-21T18:45:53.758Z,8.23
2018-06-21T18:48:22.003Z,8.00
2018-06-21T18:50:50.465Z,8.40
2018-06-21T18:53:18.854Z,7.73
2018-06-21T18:55:47.335Z,7.90
2018-06-21T18:58:15.603Z,8.50
2018-06-21T19:00:44.102Z,9.00
2018-06-21T19:03:12.331Z,8.50
2018-06-21T19:05:40.531Z,8.50
2018-06-21T19:08:14.055Z,8.90
2018-06-21T19:10:47.769Z,9.53
2018-06-21T19:13:15.803Z,8.93
2018-06-21T19:15:44.017Z,9.43
2018-06-21T19:18:12.258Z,9.00
2018-06-21T19:20:40.467Z,9.43
2018-06-21T19:23:08.727Z,9.30
2018-06-21T19:25:36.967Z,9.00
2018-06-21T19:28:05.063Z,8.83
2018-06-21T19:30:33.240Z,9.40
2018-06-21T19:33:01.412Z,9.10
2018-06-21T19:35:29.591Z,9.33
2018-06-21T19:37:57.778Z,9.20
2018-06-21T19:40:25.951Z,9.70
2018-06-21T19:42:54.163Z,9.20
2018-06-21T19:45:22.315Z,8.67
2018-06-21T19:47:50.467Z,9.60
2018-06-21T19:50:18.639Z,10.37
2018-06-21T19:52:46.795Z,10.30
2018-06-21T19:55:16.287Z,10.60
2018-06-21T19:57:44.459Z,10.57
2018-06-21T20:00:12.630Z,10.60
2018-06-21T20:02:46.130Z,10.10
2018-06-21T20:05:14.303Z,9.70
2018-06-21T20:07:42.475Z,9.63
2018-06-21T20:10:10.775Z,10.13
2018-06-21T20:12:38.983Z,9.70
2018-06-21T20:15:07.110Z,10.17
2018-06-21T20:17:35.443Z,10.23
2018-06-21T20:20:08.926Z,9.87
2018-06-21T20:22:37.111Z,10.60
2018-06-21T20:25:05.271Z,10.43
2018-06-21T20:27:33.429Z,10.37
2018-06-21T20:30:01.595Z,10.40
2018-06-21T20:32:29.746Z,10.17
2018-06-21T20:34:58.053Z,9.70
2018-06-21T20:37:26.442Z,9.87
2018-06-21T20:39:54.615Z,10.27
2018-06-21T20:42:22.779Z,10.07
2018-06-21T20:44:50.946Z,10.10
2018-06-21T20:47:19.330Z,10.43
2018-06-21T20:49:47.607Z,10.60
2018-06-21T20:52:21.155Z,10.30
2018-06-21T20:54:49.314Z,10.17
2018-06-21T20:57:17.472Z,10.13
2018-06-21T20:59:45.627Z,9.90
2018-06-21T21:02:13.793Z,10.53
2018-06-21T21:05:18.548Z,9.70
2018-06-21T21:07:47.923Z,10.07
2018-06-21T21:10:17.159Z,10.20
2018-06-21T21:12:45.286Z,10.10
2018-06-21T21:15:14.266Z,11.30
2018-06-21T21:17:42.578Z,10.80
2018-06-21T21:20:11.047Z,11.03
2018-06-21T21:22:40.060Z,12.00
2018-06-21T21:25:08.198Z,11.30
2018-06-21T21:27:36.348Z,11.00
2018-06-21T21:30:06.847Z,10.80
2018-06-21T21:32:35.129Z,11.63
2018-06-21T21:35:03.275Z,11.17
2018-06-21T21:37:31.387Z,11.03
2018-06-21T21:40:01.694Z,10.90
2018-06-21T21:42:30.962Z,11.10
2018-06-21T21:44:59.136Z,10.50
2018-06-21T21:47:27.303Z,10.73
2018-06-21T21:49:55.590Z,10.50
2018-06-21T21:52:23.766Z,11.03
2018-06-21T21:54:51.934Z,11.23
2018-06-21T21:57:20.231Z,10.27
2018-06-21T21:59:49.207Z,10.03
2018-06-21T22:02:17.786Z,10.20
2018-06-21T22:04:46.274Z,10.53
2018-06-21T22:07:14.547Z,10.70
2018-06-21T22:09:42.830Z,9.90
2018-06-21T22:12:10.964Z,10.20
2018-06-21T22:14:39.121Z,10.10
2018-06-21T22:17:07.261Z,10.40
2018-06-21T22:19:35.390Z,10.73
2018-06-21T22:22:03.515Z,10.27
2018-06-21T22:24:31.654Z,11.07
2018-06-21T22:26:59.794Z,10.43
2018-06-21T22:29:27.934Z,10.13
2018-06-21T22:31:56.075Z,10.70
2018-06-21T22:34:24.202Z,10.07
2018-06-21T22:36:52.359Z,10.27
2018-06-21T22:39:20.490Z,10.40
2018-06-21T22:41:48.622Z,10.20
2018-06-21T22:44:16.747Z,10.63
2018-06-21T22:46:44.862Z,10.77
2018-06-21T22:49:13.008Z,10.63
2018-06-21T22:51:41.147Z,10.10
2018-06-21T22:54:09.272Z,10.30
2018-06-21T22:56:37.404Z,10.70
2018-06-21T22:59:05.527Z,10.73
2018-06-21T23:01:33.666Z,10.43
2018-06-21T23:04:01.807Z,10.37
2018-06-21T23:06:29.942Z,10.00
2018-06-21T23:08:58.084Z,10.50
2018-06-21T23:11:26.223Z,10.47
2018-06-21T23:13:54.354Z,10.10
2018-06-21T23:16:22.495Z,10.20
2018-06-21T23:19:01.952Z,10.47
2018-06-21T23:21:30.077Z,10.33
2018-06-21T23:23:58.215Z,11.07
2018-06-21T23:26:26.338Z,10.37
2018-06-21T23:28:54.480Z,10.50
2018-06-21T23:31:22.607Z,10.90
2018-06-21T23:33:50.744Z,10.60
2018-06-21T23:36:18.887Z,10.93
2018-06-21T23:38:47.025Z,10.73
2018-06-21T23:41:15.164Z,10.83
2018-06-21T23:43:43.292Z,10.90
2018-06-21T23:46:11.435Z,11.07
2018-06-21T23:48:39.582Z,11.00
2018-06-21T23:51:07.719Z,11.20
2018-06-21T23:53:35.870Z,10.90
2018-06-21T23:56:04.001Z,10.73
2018-06-21T23:58:32.150Z,11.27
